Time;durP1;ratioP1;P1;durP2;ratioP2;P2;SDS_P1;SDS_P2;PMS_P1;PMS_P2;Temp;Humidity;BMP_temperature;BMP_pressure;BME280_temperature;BME280_humidity;BME280_pressure;Samples;Min_cycle;Max_cycle;Signal;HPM_P1;HPM_P2
2021/10/26 00:00:27;;;;;;;22.20;15.13;;;10.50;99.90;;;;;;5025915;28;20045;-76
2021/10/26 00:02:54;;;;;;;19.40;14.48;;;10.40;99.90;;;;;;5026619;28;20491;-76
2021/10/26 00:05:21;;;;;;;19.58;15.27;;;10.50;99.90;;;;;;5012875;28;20434;-76
2021/10/26 00:07:50;;;;;;;21.17;15.95;;;10.50;99.90;;;;;;5012773;28;20056;-75
2021/10/26 00:10:17;;;;;;;24.05;17.30;;;10.50;99.90;;;;;;5003880;28;20507;-75
2021/10/26 00:12:44;;;;;;;24.30;16.17;;;10.50;99.90;;;;;;5047753;28;20470;-75
2021/10/26 00:15:11;;;;;;;24.83;17.35;;;10.50;99.90;;;;;;5031511;28;20168;-75
2021/10/26 00:17:38;;;;;;;22.85;17.35;;;10.50;99.90;;;;;;4994642;28;20041;-75
2021/10/26 00:20:06;;;;;;;27.00;18.15;;;10.50;99.90;;;;;;5009950;28;20049;-75
2021/10/26 00:22:33;;;;;;;24.83;18.38;;;10.50;99.90;;;;;;5024700;28;20134;-76
2021/10/26 00:25:01;;;;;;;27.65;17.00;;;10.60;99.90;;;;;;5050606;28;20083;-76
2021/10/26 00:27:28;;;;;;;28.75;19.73;;;10.50;99.90;;;;;;5030749;28;20071;-76
2021/10/26 00:29:54;;;;;;;24.17;17.98;;;10.60;99.90;;;;;;5030357;28;20057;-77
2021/10/26 00:32:22;;;;;;;28.98;20.67;;;10.60;99.90;;;;;;5029969;28;20250;-77
2021/10/26 00:34:49;;;;;;;36.53;22.48;;;10.60;99.90;;;;;;5013323;28;20433;-78
2021/10/26 00:37:17;;;;;;;28.48;20.77;;;10.50;99.90;;;;;;5011944;28;20045;-77
2021/10/26 00:39:44;;;;;;;33.10;22.73;;;10.50;99.90;;;;;;5012427;28;20056;-76
2021/10/26 00:42:11;;;;;;;32.45;21.45;;;10.50;99.90;;;;;;5032492;28;20434;-76
2021/10/26 00:44:38;;;;;;;41.05;23.88;;;10.40;99.90;;;;;;5014471;28;20127;-76
2021/10/26 00:47:06;;;;;;;35.00;23.20;;;10.40;99.90;;;;;;5026188;28;20507;-77
2021/10/26 00:49:34;;;;;;;40.08;25.20;;;10.40;99.90;;;;;;5009292;28;20140;-76
2021/10/26 00:52:02;;;;;;;38.17;24.40;;;10.40;99.90;;;;;;5022020;28;20426;-76
2021/10/26 00:54:28;;;;;;;41.53;26.25;;;10.30;99.90;;;;;;5010424;28;20068;-77
2021/10/26 00:57:02;;;;;;;43.50;26.63;;;10.30;99.90;;;;;;5011623;28;20495;-77
2021/10/26 00:59:29;;;;;;;39.30;25.48;;;10.30;99.90;;;;;;5011856;28;20048;-76
2021/10/26 01:01:58;;;;;;;43.55;27.05;;;10.30;99.90;;;;;;5027602;28;20108;-77
2021/10/26 01:04:27;;;;;;;47.30;27.38;;;10.40;99.90;;;;;;5012545;28;20055;-77
2021/10/26 01:06:56;;;;;;;42.60;27.23;;;10.30;99.90;;;;;;5026352;28;20073;-77
2021/10/26 01:09:25;;;;;;;48.22;27.77;;;10.30;99.90;;;;;;5010567;28;20430;-77
2021/10/26 01:11:52;;;;;;;50.40;28.10;;;10.30;99.90;;;;;;5026023;28;20111;-77
2021/10/26 01:14:20;;;;;;;48.42;28.58;;;10.30;99.90;;;;;;5027675;28;20292;-77
2021/10/26 01:16:48;;;;;;;48.72;27.70;;;10.20;99.90;;;;;;5027315;28;20534;-77
2021/10/26 01:19:16;;;;;;;51.00;31.05;;;10.30;99.90;;;;;;5012283;28;20053;-77
2021/10/26 01:21:43;;;;;;;47.63;27.77;;;10.30;99.90;;;;;;5011507;28;20056;-77
2021/10/26 01:24:09;;;;;;;48.72;28.80;;;10.30;99.90;;;;;;5009620;28;20041;-76
2021/10/26 01:26:37;;;;;;;45.13;27.52;;;10.30;99.90;;;;;;5027526;28;20048;-77
2021/10/26 01:29:04;;;;;;;45.92;28.65;;;10.30;99.90;;;;;;5011946;28;20041;-77
2021/10/26 01:31:35;;;;;;;49.85;28.83;;;10.40;99.90;;;;;;4991939;28;20057;-77
2021/10/26 01:34:26;;;;;;;46.13;28.13;;;10.40;99.90;;;;;;4997037;28;20056;-77
2021/10/26 01:37:00;;;;;;;57.35;29.98;;;10.40;99.90;;;;;;5009650;28;20060;-77
2021/10/26 01:39:28;;;;;;;50.55;28.52;;;10.40;99.90;;;;;;5011300;28;20060;-77
2021/10/26 01:41:56;;;;;;;53.90;29.73;;;10.40;99.90;;;;;;5011261;28;20041;-77
2021/10/26 01:44:23;;;;;;;51.70;29.40;;;10.40;99.90;;;;;;4990902;28;20061;-77
2021/10/26 01:46:51;;;;;;;44.90;29.58;;;10.40;99.90;;;;;;5011310;28;20049;-77
2021/10/26 01:49:22;;;;;;;52.22;29.45;;;10.50;99.90;;;;;;4996083;28;20049;-77
2021/10/26 01:51:51;;;;;;;54.63;31.58;;;10.50;99.90;;;;;;5027813;28;20049;-76
2021/10/26 01:54:18;;;;;;;52.13;28.52;;;10.50;99.90;;;;;;5045577;28;20057;-77
2021/10/26 01:56:46;;;;;;;50.97;30.02;;;10.50;99.90;;;;;;5007058;28;20053;-77
2021/10/26 01:59:24;;;;;;;49.75;30.00;;;10.40;99.90;;;;;;5025180;28;20057;-77
2021/10/26 02:01:51;;;;;;;49.22;29.55;;;10.40;99.90;;;;;;5027000;28;20053;-77
2021/10/26 02:04:29;;;;;;;58.92;30.98;;;10.40;99.90;;;;;;5009840;28;20061;-76
2021/10/26 02:06:56;;;;;;;56.58;30.17;;;10.40;99.90;;;;;;5025693;28;20250;-76
2021/10/26 02:09:23;;;;;;;48.67;28.02;;;10.40;99.90;;;;;;5024618;28;20342;-76
2021/10/26 02:11:50;;;;;;;53.45;29.48;;;10.50;99.90;;;;;;5008791;28;20052;-76
2021/10/26 02:14:17;;;;;;;45.88;27.50;;;10.50;99.90;;;;;;5011624;28;20045;-76
2021/10/26 02:16:44;;;;;;;50.42;28.35;;;10.40;99.90;;;;;;5037491;28;20053;-75
2021/10/26 02:19:11;;;;;;;53.05;29.30;;;10.50;99.90;;;;;;4994205;28;20442;-75
2021/10/26 02:21:37;;;;;;;44.20;28.33;;;10.50;99.90;;;;;;5040154;28;20049;-75
2021/10/26 02:24:04;;;;;;;47.65;28.25;;;10.40;99.90;;;;;;5025461;28;20492;-75
2021/10/26 02:26:34;;;;;;;46.15;27.92;;;10.50;99.90;;;;;;5005712;28;20041;-75
2021/10/26 02:29:03;;;;;;;48.53;28.42;;;10.50;99.90;;;;;;5011890;28;20191;-75
2021/10/26 02:31:32;;;;;;;49.90;29.30;;;10.50;99.90;;;;;;4992606;28;20042;-75
2021/10/26 02:33:59;;;;;;;49.72;28.85;;;10.50;99.90;;;;;;5028190;28;20045;-75
2021/10/26 02:36:41;;;;;;;44.70;27.88;;;10.50;99.90;;;;;;5003235;28;20049;-75
2021/10/26 02:39:08;;;;;;;50.88;28.27;;;10.50;99.90;;;;;;5009609;28;20076;-76
2021/10/26 02:41:35;;;;;;;45.63;26.92;;;10.50;99.90;;;;;;5030351;28;20057;-76
2021/10/26 02:44:02;;;;;;;48.83;29.08;;;10.50;99.90;;;;;;5009239;28;20678;-76
2021/10/26 02:46:47;;;;;;;;;;;10.50;99.90;;;;;;5041556;28;20179;-75
2021/10/26 02:49:14;;;;;;;52.88;27.83;;;10.50;99.90;;;;;;5009516;28;19948;-75
2021/10/26 02:51:41;;;;;;;48.92;28.55;;;10.50;99.90;;;;;;5010379;28;20084;-75
2021/10/26 02:54:09;;;;;;;48.03;28.65;;;10.50;99.90;;;;;;5027983;28;20060;-75
2021/10/26 02:56:38;;;;;;;53.45;29.70;;;10.50;99.90;;;;;;5007876;28;20611;-76
2021/10/26 02:59:05;;;;;;;50.25;27.50;;;10.60;99.90;;;;;;5006872;28;20065;-75
2021/10/26 03:01:33;;;;;;;48.92;28.65;;;10.50;99.90;;;;;;5016085;28;20045;-76
2021/10/26 03:04:00;;;;;;;48.65;28.67;;;10.60;99.90;;;;;;5016143;28;20061;-76
2021/10/26 03:06:27;;;;;;;51.78;29.35;;;10.60;99.90;;;;;;5024794;28;20056;-75
2021/10/26 03:08:56;;;;;;;49.50;28.70;;;10.50;99.90;;;;;;5009940;28;20056;-75
2021/10/26 03:11:30;;;;;;;45.00;26.27;;;10.60;99.90;;;;;;5009856;28;20049;-75
2021/10/26 03:13:57;;;;;;;50.33;28.38;;;10.60;99.90;;;;;;4993121;28;20144;-76
2021/10/26 03:16:24;;;;;;;56.72;31.10;;;10.50;99.90;;;;;;5026524;28;20463;-76
2021/10/26 03:18:51;;;;;;;57.17;29.65;;;10.50;99.90;;;;;;5009992;28;20054;-76
2021/10/26 03:21:18;;;;;;;53.33;28.45;;;10.50;99.90;;;;;;5025937;28;20053;-75
2021/10/26 03:23:45;;;;;;;52.58;28.45;;;10.50;99.90;;;;;;5010331;28;20115;-75
2021/10/26 03:26:12;;;;;;;52.45;29.05;;;10.50;99.90;;;;;;5009318;28;20064;-75
2021/10/26 03:28:40;;;;;;;47.22;28.10;;;10.50;99.90;;;;;;4993303;28;20482;-75
2021/10/26 03:31:07;;;;;;;41.53;27.67;;;10.60;99.90;;;;;;5009442;28;20057;-76
2021/10/26 03:34:04;;;;;;;44.30;26.48;;;10.50;99.90;;;;;;5008826;28;20056;-75
2021/10/26 03:36:34;;;;;;;46.88;27.08;;;10.50;99.90;;;;;;5008673;28;20072;-75
2021/10/26 03:39:01;;;;;;;48.80;28.70;;;10.50;99.90;;;;;;5025201;28;20415;-76
2021/10/26 03:41:28;;;;;;;54.95;30.02;;;10.50;99.90;;;;;;5008908;28;20049;-75
2021/10/26 03:43:55;;;;;;;59.65;30.02;;;10.50;99.90;;;;;;5008896;28;20053;-75
2021/10/26 03:46:22;;;;;;;53.80;29.90;;;10.50;99.90;;;;;;5007520;28;20041;-75
2021/10/26 03:48:48;;;;;;;51.60;29.60;;;10.50;99.90;;;;;;5007510;28;20140;-75
2021/10/26 03:51:16;;;;;;;57.28;28.73;;;10.50;99.90;;;;;;5007803;28;20049;-75
2021/10/26 03:53:44;;;;;;;54.20;29.63;;;10.50;99.90;;;;;;5008495;28;20056;-76
2021/10/26 03:56:11;;;;;;;53.00;30.75;;;10.50;99.90;;;;;;5009016;28;20575;-75
2021/10/26 03:58:40;;;;;;;54.78;31.10;;;10.60;99.90;;;;;;5008953;28;20054;-76
2021/10/26 04:01:19;;;;;;;50.50;28.20;;;10.50;99.90;;;;;;5021632;28;20041;-76
2021/10/26 04:03:47;;;;;;;49.25;28.27;;;10.50;99.90;;;;;;5004107;28;20041;-76
2021/10/26 04:06:16;;;;;;;49.58;27.83;;;10.50;99.90;;;;;;5019278;28;20075;-75
2021/10/26 04:11:22;;;;;;;47.08;27.10;;;10.50;99.90;;;;;;5024123;28;20500;-75
2021/10/26 04:13:52;;;;;;;54.28;29.27;;;10.50;99.90;;;;;;4988645;28;20056;-76
2021/10/26 04:16:20;;;;;;;50.30;27.17;;;10.50;99.90;;;;;;5005566;28;20053;-75
2021/10/26 04:18:48;;;;;;;45.53;26.75;;;10.60;99.90;;;;;;5009798;28;20068;-74
2021/10/26 04:21:17;;;;;;;50.35;26.55;;;10.60;99.90;;;;;;5009025;28;20049;-75
2021/10/26 04:23:47;;;;;;;45.88;26.20;;;10.60;99.90;;;;;;5023562;28;20053;-76
2021/10/26 04:26:18;;;;;;;51.13;27.23;;;10.60;99.90;;;;;;5007629;28;20118;-76
2021/10/26 04:28:46;;;;;;;49.60;26.85;;;10.60;99.90;;;;;;5054454;28;20076;-76
2021/10/26 04:31:15;;;;;;;48.45;25.52;;;10.60;99.90;;;;;;5024351;28;20045;-76
2021/10/26 04:33:43;;;;;;;47.78;27.52;;;10.50;99.90;;;;;;5007767;28;20080;-77
2021/10/26 04:36:11;;;;;;;50.42;26.30;;;10.60;99.90;;;;;;5022575;28;20070;-76
2021/10/26 04:38:39;;;;;;;46.50;27.85;;;10.50;99.90;;;;;;5004988;28;20058;-76
2021/10/26 04:41:11;;;;;;;48.45;26.95;;;10.60;99.90;;;;;;5011850;28;20073;-76
2021/10/26 04:43:38;;;;;;;46.72;25.58;;;10.60;99.90;;;;;;5005189;28;20046;-77
2021/10/26 04:46:10;;;;;;;48.17;27.40;;;10.60;99.90;;;;;;4987357;28;20100;-76
2021/10/26 04:48:37;;;;;;;49.30;28.23;;;10.60;99.90;;;;;;5007990;28;20070;-76
2021/10/26 04:51:04;;;;;;;51.17;28.95;;;10.60;99.90;;;;;;5008343;28;20598;-77
2021/10/26 04:53:31;;;;;;;53.67;26.83;;;10.60;99.90;;;;;;5004050;28;20049;-76
2021/10/26 04:56:02;;;;;;;54.28;28.10;;;10.50;99.90;;;;;;5039824;28;20042;-76
2021/10/26 04:58:35;;;;;;;51.05;28.65;;;10.60;99.90;;;;;;5023866;28;20060;-76
2021/10/26 05:01:02;;;;;;;53.03;28.20;;;10.50;99.90;;;;;;5006227;28;20499;-76
2021/10/26 05:03:31;;;;;;;56.70;32.05;;;10.40;99.90;;;;;;5007949;28;20068;-76
2021/10/26 05:05:58;;;;;;;52.60;28.23;;;10.40;99.90;;;;;;5023485;28;20051;-77
2021/10/26 05:08:26;;;;;;;52.83;28.15;;;10.50;99.90;;;;;;4991716;28;20049;-76
2021/10/26 05:10:53;;;;;;;56.88;29.70;;;10.40;99.90;;;;;;5023533;28;20041;-76
2021/10/26 05:13:20;;;;;;;57.22;29.88;;;10.50;99.90;;;;;;5010986;28;20052;-77
2021/10/26 05:16:16;;;;;;;54.40;28.40;;;10.40;99.90;;;;;;5000242;28;20061;-76
2021/10/26 05:19:04;;;;;;;54.55;29.83;;;10.40;99.90;;;;;;5019356;28;20056;-76
2021/10/26 05:21:49;;;;;;;55.55;28.45;;;10.40;99.90;;;;;;5006363;28;20136;-76
2021/10/26 05:24:35;;;;;;;;;;;10.40;99.90;;;;;;5025670;28;20097;-76
2021/10/26 05:27:21;;;;;;;53.67;29.27;;;10.40;99.90;;;;;;5023644;28;19960;-76
2021/10/26 05:29:49;;;;;;;60.78;28.92;;;10.40;99.90;;;;;;4990895;28;20698;-76
2021/10/26 05:32:16;;;;;;;51.83;28.52;;;10.40;99.90;;;;;;4990067;28;20053;-76
2021/10/26 05:34:43;;;;;;;55.17;29.10;;;10.40;99.90;;;;;;5024066;28;20076;-76
2021/10/26 05:37:11;;;;;;;58.80;28.55;;;10.40;99.90;;;;;;5024191;28;20064;-76
2021/10/26 05:39:38;;;;;;;52.95;27.98;;;10.40;99.90;;;;;;5039717;28;20053;-77
2021/10/26 05:42:06;;;;;;;54.10;28.58;;;10.40;99.90;;;;;;5039152;28;20037;-77
2021/10/26 05:44:34;;;;;;;45.83;26.13;;;10.40;99.90;;;;;;5022414;28;20132;-76
2021/10/26 05:47:01;;;;;;;47.58;25.25;;;10.50;99.90;;;;;;4987930;28;20551;-76
2021/10/26 05:49:28;;;;;;;50.15;25.38;;;10.40;99.90;;;;;;4971521;28;20042;-75
2021/10/26 05:51:56;;;;;;;43.53;26.35;;;10.50;99.90;;;;;;4971155;28;20132;-76
2021/10/26 05:54:23;;;;;;;51.30;25.48;;;10.50;99.90;;;;;;4998007;28;20476;-75
2021/10/26 05:56:50;;;;;;;47.35;26.15;;;10.50;99.90;;;;;;4980875;28;20061;-76
2021/10/26 05:59:17;;;;;;;44.03;26.75;;;10.50;99.90;;;;;;5011296;28;20050;-76
2021/10/26 06:01:44;;;;;;;51.78;25.70;;;10.50;99.90;;;;;;5023931;28;20053;-76
2021/10/26 06:04:11;;;;;;;51.25;27.02;;;10.50;99.90;;;;;;5010996;28;20422;-77
2021/10/26 06:06:38;;;;;;;46.42;26.98;;;10.50;99.90;;;;;;4997744;28;20298;-77
2021/10/26 06:09:05;;;;;;;45.42;26.77;;;10.50;99.90;;;;;;5007688;28;20153;-76
2021/10/26 06:11:33;;;;;;;56.85;27.35;;;10.50;99.90;;;;;;4978703;28;20089;-77
2021/10/26 06:14:04;;;;;;;47.38;26.67;;;10.50;99.90;;;;;;5023569;28;20492;-74
2021/10/26 06:16:36;;;;;;;50.95;25.40;;;10.50;99.90;;;;;;5028476;28;20053;-76
2021/10/26 06:19:05;;;;;;;51.80;27.30;;;10.40;99.90;;;;;;5011176;28;20601;-76
2021/10/26 06:21:32;;;;;;;51.95;27.98;;;10.40;99.90;;;;;;5028586;28;20115;-76
2021/10/26 06:24:00;;;;;;;53.20;27.25;;;10.50;99.90;;;;;;5012556;28;20111;-76
2021/10/26 06:26:29;;;;;;;48.35;24.85;;;10.50;99.90;;;;;;5026385;28;20072;-71
2021/10/26 06:29:02;;;;;;;52.33;26.30;;;10.50;99.90;;;;;;5011554;28;20045;-71
2021/10/26 06:31:30;;;;;;;42.05;24.83;;;10.50;99.90;;;;;;5023817;28;20050;-71
2021/10/26 06:33:58;;;;;;;49.10;25.08;;;10.50;99.90;;;;;;5028992;28;20104;-71
2021/10/26 06:36:27;;;;;;;48.70;25.90;;;10.50;99.90;;;;;;5025911;28;20341;-70
2021/10/26 06:38:55;;;;;;;42.50;24.50;;;10.50;99.90;;;;;;5044510;28;20632;-71
2021/10/26 06:41:22;;;;;;;45.80;24.50;;;10.50;99.90;;;;;;5009592;28;20124;-70
2021/10/26 06:44:02;;;;;;;45.28;25.13;;;10.50;99.90;;;;;;5028430;28;20060;-72
2021/10/26 06:46:48;;;;;;;43.95;23.98;;;10.50;99.90;;;;;;5055486;28;20065;-72
2021/10/26 06:49:33;;;;;;;;;;;10.50;99.90;;;;;;5026911;28;20081;-71
2021/10/26 06:52:18;;;;;;;40.30;23.58;;;10.50;99.90;;;;;;5026148;28;19929;-71
2021/10/26 06:55:05;;;;;;;44.22;24.70;;;10.50;99.90;;;;;;4994234;28;20053;-72
2021/10/26 06:57:51;;;;;;;45.53;23.20;;;10.60;99.90;;;;;;5021811;28;20049;-70
2021/10/26 07:00:19;;;;;;;39.90;22.92;;;10.60;99.90;;;;;;5025918;28;20052;-71
2021/10/26 07:03:21;;;;;;;45.70;22.50;;;10.60;99.90;;;;;;5004768;28;20057;-71
2021/10/26 07:05:48;;;;;;;36.22;21.05;;;10.60;99.90;;;;;;5022754;28;20076;-71
2021/10/26 07:08:44;;;;;;;41.08;23.13;;;10.60;99.90;;;;;;4945022;28;20225;-71
2021/10/26 07:11:34;;;;;;;38.08;22.27;;;10.60;99.90;;;;;;5024672;28;20038;-72
2021/10/26 07:14:06;;;;;;;38.90;22.85;;;10.50;99.90;;;;;;5007299;28;20046;-71
2021/10/26 07:16:34;;;;;;;39.42;22.45;;;10.50;99.90;;;;;;5024685;28;20129;-71
2021/10/26 07:19:02;;;;;;;46.60;26.27;;;10.60;99.90;;;;;;5009598;28;20407;-71
2021/10/26 07:21:49;;;;;;;47.22;24.63;;;10.50;99.90;;;;;;5025997;28;20054;-70
2021/10/26 07:24:57;;;;;;;46.55;25.30;;;10.50;99.90;;;;;;4937958;28;20066;-71
2021/10/26 07:27:25;;;;;;;41.25;22.98;;;10.50;99.90;;;;;;4983965;28;20076;-71
2021/10/26 07:29:53;;;;;;;45.47;24.45;;;10.50;99.90;;;;;;5004769;28;20056;-70
2021/10/26 07:32:20;;;;;;;43.40;24.52;;;10.50;99.90;;;;;;5008157;28;20482;-71
2021/10/26 07:34:49;;;;;;;48.75;25.13;;;10.60;99.90;;;;;;5008405;28;20087;-71
2021/10/26 07:37:20;;;;;;;43.65;26.27;;;10.60;99.90;;;;;;5001650;28;20403;-70
2021/10/26 07:39:57;;;;;;;43.53;24.95;;;10.60;99.90;;;;;;5025341;28;20057;-71
2021/10/26 07:42:24;;;;;;;39.92;24.23;;;10.70;99.90;;;;;;5023541;28;20096;-70
2021/10/26 07:45:13;;;;;;;43.63;24.33;;;10.60;99.90;;;;;;5024870;28;20131;-71
2021/10/26 07:47:40;;;;;;;36.55;22.77;;;10.60;99.90;;;;;;5009638;28;20049;-71
2021/10/26 07:50:08;;;;;;;41.00;24.48;;;10.70;99.90;;;;;;5048217;28;20479;-71
2021/10/26 07:52:36;;;;;;;41.45;24.63;;;10.70;99.90;;;;;;5025004;28;20053;-70
2021/10/26 07:55:20;;;;;;;;;;;10.70;99.90;;;;;;5012143;28;20053;-71
2021/10/26 07:57:54;;;;;;;46.03;24.45;;;10.70;99.90;;;;;;5022330;28;19921;-71
2021/10/26 08:00:24;;;;;;;47.10;25.63;;;10.70;99.90;;;;;;5001337;28;20084;-71
2021/10/26 08:03:02;;;;;;;43.90;23.80;;;10.70;99.90;;;;;;5020372;28;20045;-71
2021/10/26 08:05:49;;;;;;;41.65;23.55;;;10.70;99.90;;;;;;5039423;28;20419;-71
2021/10/26 08:08:17;;;;;;;45.72;24.20;;;10.70;99.90;;;;;;5026737;28;20053;-71
2021/10/26 08:10:46;;;;;;;42.20;23.25;;;10.80;99.90;;;;;;5006927;28;20046;-71
2021/10/26 08:13:15;;;;;;;45.17;25.00;;;10.80;99.90;;;;;;5034047;28;20048;-70
2021/10/26 08:15:43;;;;;;;45.25;24.52;;;10.80;99.90;;;;;;5018663;28;20046;-72
2021/10/26 08:18:10;;;;;;;40.25;23.92;;;10.80;99.90;;;;;;5024537;28;20068;-70
2021/10/26 08:20:41;;;;;;;40.80;23.40;;;10.90;99.90;;;;;;5006016;28;20057;-71
2021/10/26 08:23:09;;;;;;;41.17;23.67;;;10.90;99.90;;;;;;5009576;28;20045;-75
2021/10/26 08:25:39;;;;;;;42.13;23.45;;;10.90;99.90;;;;;;5024529;28;20053;-75
2021/10/26 08:28:11;;;;;;;34.17;20.35;;;11.10;99.90;;;;;;5008644;28;20064;-75
2021/10/26 08:30:46;;;;;;;35.72;20.90;;;11.30;99.90;;;;;;5006346;28;20503;-75
2021/10/26 08:36:03;;;;;;;36.22;21.30;;;11.70;99.90;;;;;;5004686;28;20079;-75
2021/10/26 08:38:30;;;;;;;31.30;19.63;;;11.70;99.90;;;;;;5005671;28;20054;-75
2021/10/26 08:41:06;;;;;;;33.45;19.30;;;11.70;99.90;;;;;;5008163;28;20077;-75
2021/10/26 08:43:34;;;;;;;30.02;16.17;;;11.70;99.90;;;;;;5007994;28;20080;-76
2021/10/26 08:46:08;;;;;;;28.27;17.42;;;11.60;99.90;;;;;;5006941;28;20164;-75
2021/10/26 08:48:40;;;;;;;29.88;17.52;;;11.60;99.90;;;;;;4993638;28;20049;-77
2021/10/26 08:51:26;;;;;;;28.40;15.88;;;11.60;99.90;;;;;;5040841;28;20046;-76
2021/10/26 08:53:55;;;;;;;28.00;16.67;;;11.50;99.90;;;;;;5008451;28;20133;-77
2021/10/26 08:56:40;;;;;;;27.73;15.25;;;11.40;99.90;;;;;;5038469;28;20148;-76
2021/10/26 08:59:27;;;;;;;24.98;16.67;;;11.40;99.90;;;;;;5025721;28;20041;-75
2021/10/26 09:01:58;;;;;;;27.75;16.45;;;11.40;99.90;;;;;;5023623;28;20088;-75
2021/10/26 09:04:33;;;;;;;33.17;14.85;;;11.40;99.90;;;;;;5024683;28;20049;-76
2021/10/26 09:07:05;;;;;;;25.60;14.38;;;11.40;99.90;;;;;;5041348;28;20072;-75
2021/10/26 09:09:34;;;;;;;27.95;15.68;;;11.40;99.90;;;;;;5007893;28;20049;-77
2021/10/26 09:18:12;;;;;;;25.42;14.57;;;11.40;99.90;;;;;;4978223;28;20062;-75
2021/10/26 09:20:53;;;;;;;24.33;13.95;;;11.40;99.90;;;;;;5011857;28;20053;-75
2021/10/26 09:23:29;;;;;;;22.70;14.07;;;11.40;99.90;;;;;;5008593;28;20056;-75
2021/10/26 09:26:00;;;;;;;23.73;14.05;;;11.40;99.90;;;;;;5024712;28;20056;-75
2021/10/26 09:28:28;;;;;;;27.00;15.95;;;11.40;99.90;;;;;;5023773;28;20068;-75
2021/10/26 09:31:07;;;;;;;18.90;13.25;;;11.40;99.90;;;;;;5025804;28;20055;-77
2021/10/26 09:33:35;;;;;;;24.45;13.55;;;11.50;99.90;;;;;;5012494;28;20419;-75
2021/10/26 09:36:25;;;;;;;28.67;13.27;;;11.50;99.90;;;;;;5003904;28;20107;-77
2021/10/26 09:39:04;;;;;;;21.48;12.30;;;11.50;99.90;;;;;;5012383;28;20107;-76
2021/10/26 09:41:33;;;;;;;23.33;12.73;;;11.60;99.90;;;;;;5027958;28;20049;-74
2021/10/26 09:44:14;;;;;;;23.00;13.77;;;11.70;99.90;;;;;;5029740;28;20180;-76
2021/10/26 09:46:59;;;;;;;25.38;12.15;;;11.80;99.90;;;;;;5028025;28;20053;-77
2021/10/26 09:49:42;;;;;;;28.85;12.88;;;11.70;99.90;;;;;;5030219;28;20049;-76
2021/10/26 09:52:28;;;;;;;22.77;10.75;;;11.60;99.90;;;;;;5011844;28;20136;-76
2021/10/26 09:55:21;;;;;;;15.88;10.35;;;11.60;99.90;;;;;;5029075;28;20065;-77
2021/10/26 09:58:15;;;;;;;16.85;10.57;;;11.60;99.90;;;;;;5027979;28;20045;-76
2021/10/26 10:00:45;;;;;;;19.70;11.93;;;11.60;99.90;;;;;;5029056;28;20041;-76
2021/10/26 10:03:16;;;;;;;19.60;11.40;;;11.70;99.90;;;;;;5028429;28;20056;-76
2021/10/26 10:05:52;;;;;;;16.65;10.90;;;11.80;99.90;;;;;;5026705;28;20069;-76
2021/10/26 10:08:22;;;;;;;25.60;16.80;;;11.80;99.90;;;;;;5008947;28;20446;-77
2021/10/26 10:10:51;;;;;;;20.30;11.05;;;11.90;99.90;;;;;;5012794;28;20045;-76
2021/10/26 10:13:18;;;;;;;15.25;10.50;;;12.00;99.90;;;;;;5011434;28;20519;-77
2021/10/26 10:15:49;;;;;;;19.40;9.55;;;12.10;99.90;;;;;;5012062;28;20049;-76
2021/10/26 10:18:21;;;;;;;9.70;7.57;;;11.90;99.90;;;;;;4995735;28;20412;-77
2021/10/26 10:20:53;;;;;;;17.30;8.60;;;12.00;99.90;;;;;;5029444;28;20048;-77
2021/10/26 10:23:25;;;;;;;12.93;7.93;;;11.90;99.90;;;;;;5028644;28;20057;-76
2021/10/26 10:25:56;;;;;;;9.18;6.03;;;12.00;99.90;;;;;;5011597;28;20430;-76
2021/10/26 10:28:30;;;;;;;20.75;6.97;;;12.30;99.90;;;;;;5026285;28;20609;-77
2021/10/26 10:30:58;;;;;;;17.67;7.53;;;12.30;99.90;;;;;;5027449;28;20057;-77
2021/10/26 10:33:25;;;;;;;16.58;6.80;;;12.30;99.90;;;;;;5028956;28;20041;-77
2021/10/26 10:35:58;;;;;;;15.93;7.80;;;12.50;99.90;;;;;;5030375;28;20111;-77
2021/10/26 10:38:27;;;;;;;9.75;7.00;;;12.60;99.90;;;;;;5011889;28;20060;-76
2021/10/26 10:41:24;;;;;;;13.73;7.88;;;12.60;99.90;;;;;;5024215;28;20145;-76
2021/10/26 10:43:52;;;;;;;10.20;6.75;;;13.00;99.90;;;;;;5037402;28;20049;-77
2021/10/26 10:46:39;;;;;;;9.38;7.03;;;13.40;99.90;;;;;;5023082;28;20050;-76
2021/10/26 10:49:18;;;;;;;12.23;7.10;;;13.50;99.90;;;;;;5009511;28;20050;-76
2021/10/26 10:52:04;;;;;;;9.32;7.80;;;13.70;99.90;;;;;;4994470;28;20048;-75
2021/10/26 10:54:38;;;;;;;10.88;7.28;;;13.70;99.90;;;;;;4993775;28;20061;-76
2021/10/26 10:57:37;;;;;;;8.02;7.07;;;13.60;99.90;;;;;;5008066;28;20085;-76
2021/10/26 11:00:42;;;;;;;11.98;6.80;;;13.40;99.90;;;;;;4990463;28;20057;-76
2021/10/26 11:03:28;;;;;;;10.45;7.10;;;12.90;99.90;;;;;;4966720;28;20082;-75
2021/10/26 11:05:55;;;;;;;9.73;6.57;;;12.60;99.90;;;;;;4933204;28;20490;-76
2021/10/26 11:08:47;;;;;;;9.95;7.07;;;12.40;99.90;;;;;;4993202;28;20054;-76
2021/10/26 11:11:16;;;;;;;12.48;7.22;;;12.40;99.90;;;;;;5005482;28;20045;-76
2021/10/26 11:13:44;;;;;;;19.75;7.80;;;12.40;99.90;;;;;;5008111;28;20599;-76
2021/10/26 11:16:12;;;;;;;13.38;9.18;;;12.40;99.90;;;;;;5006721;28;20054;-77
2021/10/26 11:18:47;;;;;;;15.85;8.50;;;12.40;99.90;;;;;;5008262;28;20112;-76
2021/10/26 11:21:24;;;;;;;12.52;9.15;;;12.60;99.90;;;;;;5016119;28;20055;-77
2021/10/26 11:23:58;;;;;;;13.23;8.40;;;12.80;99.90;;;;;;5010373;28;20061;-76
2021/10/26 11:26:43;;;;;;;13.20;8.20;;;12.90;99.90;;;;;;5026900;28;20125;-76
2021/10/26 11:29:25;;;;;;;9.98;7.55;;;13.10;99.90;;;;;;5027950;28;20053;-76
2021/10/26 11:31:53;;;;;;;15.00;7.45;;;13.30;99.90;;;;;;5027789;28;20055;-76
2021/10/26 11:34:25;;;;;;;11.27;8.23;;;13.20;99.90;;;;;;5025810;28;20057;-77
2021/10/26 11:37:07;;;;;;;15.48;7.78;;;13.20;99.90;;;;;;5025601;28;20045;-76
2021/10/26 11:39:38;;;;;;;12.70;7.65;;;13.30;99.90;;;;;;4994172;28;20546;-76
2021/10/26 11:42:14;;;;;;;13.85;7.90;;;13.50;99.90;;;;;;5008681;28;20056;-77
2021/10/26 11:44:42;;;;;;;12.23;7.55;;;13.50;99.90;;;;;;5025403;28;20057;-76
2021/10/26 11:47:10;;;;;;;11.95;8.07;;;13.70;99.90;;;;;;5024883;28;20137;-76
2021/10/26 11:49:36;;;;;;;13.18;8.30;;;13.70;99.90;;;;;;5026219;28;20096;-77
2021/10/26 11:52:05;;;;;;;10.88;7.85;;;13.90;99.90;;;;;;5009012;28;20504;-77
2021/10/26 11:54:38;;;;;;;9.43;7.78;;;13.70;99.90;;;;;;5027014;28;20045;-77
2021/10/26 11:57:12;;;;;;;11.70;8.15;;;13.60;99.90;;;;;;5020622;28;20061;-77
2021/10/26 12:00:03;;;;;;;15.25;8.23;;;13.80;99.90;;;;;;4973643;28;20073;-76
2021/10/26 12:02:39;;;;;;;11.50;8.30;;;13.60;99.90;;;;;;5005118;28;20049;-76
2021/10/26 12:05:20;;;;;;;10.10;8.32;;;13.50;99.90;;;;;;5000839;28;20233;-77
2021/10/26 12:07:49;;;;;;;11.10;8.80;;;13.40;99.90;;;;;;5026068;28;20045;-77
2021/10/26 12:10:21;;;;;;;8.65;7.53;;;13.60;99.90;;;;;;5023431;28;20149;-76
2021/10/26 12:12:48;;;;;;;9.55;8.52;;;13.60;99.90;;;;;;5013220;28;20042;-77
2021/10/26 12:15:14;;;;;;;9.55;7.82;;;13.60;99.90;;;;;;5005112;28;20420;-76
2021/10/26 12:17:42;;;;;;;14.25;8.18;;;13.50;99.90;;;;;;5004248;28;20104;-76
2021/10/26 12:20:12;;;;;;;9.20;7.65;;;13.50;99.90;;;;;;5004714;28;20046;-77
2021/10/26 12:22:49;;;;;;;11.35;7.53;;;13.40;99.90;;;;;;4972901;28;20046;-77
2021/10/26 12:25:21;;;;;;;10.10;7.45;;;13.30;99.90;;;;;;4989528;28;20045;-76
2021/10/26 12:27:55;;;;;;;8.45;7.85;;;13.60;99.90;;;;;;4988567;28;20046;-76
2021/10/26 12:30:24;;;;;;;8.80;8.02;;;13.80;99.90;;;;;;4988955;28;20042;-77
2021/10/26 12:33:04;;;;;;;9.75;8.75;;;13.80;99.90;;;;;;5003875;28;20060;-77
2021/10/26 12:35:53;;;;;;;10.43;8.13;;;13.90;99.90;;;;;;4998990;28;20126;-76
2021/10/26 12:38:38;;;;;;;13.20;8.63;;;13.80;99.90;;;;;;5004976;28;20058;-77
2021/10/26 12:41:15;;;;;;;9.40;8.02;;;13.90;99.90;;;;;;4957165;28;20046;-76
2021/10/26 12:43:49;;;;;;;9.25;8.38;;;14.00;99.90;;;;;;4990786;28;20262;-77
2021/10/26 12:46:24;;;;;;;10.23;8.98;;;14.00;99.90;;;;;;5004510;28;20558;-76
2021/10/26 12:49:03;;;;;;;10.50;7.90;;;13.90;99.90;;;;;;5006357;28;20058;-76
2021/10/26 12:51:29;;;;;;;11.40;8.32;;;13.90;99.90;;;;;;4972164;28;20054;-76
2021/10/26 12:53:57;;;;;;;9.52;8.52;;;14.00;99.90;;;;;;5004993;28;20053;-76
2021/10/26 12:56:28;;;;;;;10.23;8.93;;;14.00;99.90;;;;;;5006458;28;20045;-77
2021/10/26 12:58:57;;;;;;;9.70;7.90;;;13.90;99.90;;;;;;5002070;28;20150;-76
2021/10/26 13:01:32;;;;;;;10.50;8.20;;;13.80;99.90;;;;;;5018593;28;20056;-77
2021/10/26 13:03:59;;;;;;;9.85;8.18;;;13.70;99.90;;;;;;5024520;28;20045;-78
2021/10/26 13:06:29;;;;;;;12.43;8.48;;;13.60;99.90;;;;;;5034365;28;20053;-75